createdAt,value
2018-12-17T00:00:47.877Z,2.18
2018-12-17T00:03:53.122Z,2.18
2018-12-17T00:06:58.364Z,2.21
2018-12-17T00:10:01.928Z,2.17
2018-12-17T00:13:08.242Z,2.17
2018-12-17T00:16:11.472Z,2.23
2018-12-17T00:19:14.816Z,2.27
2018-12-17T00:22:18.029Z,2.24
2018-12-17T00:25:21.653Z,2.47
2018-12-17T00:28:24.873Z,2.64
2018-12-17T00:31:28.069Z,2.91
2018-12-17T00:34:31.277Z,2.75
2018-12-17T00:37:34.493Z,2.95
2018-12-17T00:40:38.837Z,2.97
2018-12-17T00:43:42.055Z,3.00
2018-12-17T00:46:45.288Z,3.03
2018-12-17T00:49:48.509Z,3.15
2018-12-17T00:52:51.724Z,2.98
2018-12-17T00:55:55.064Z,3.16
2018-12-17T00:58:58.308Z,3.17
2018-12-17T01:02:01.520Z,3.29
2018-12-17T01:05:06.093Z,3.25
2018-12-17T01:08:09.564Z,3.12
2018-12-17T01:11:12.797Z,3.21
2018-12-17T01:14:16.001Z,3.34
2018-12-17T01:17:19.248Z,3.37
2018-12-17T01:20:22.481Z,3.23
2018-12-17T01:23:25.681Z,3.34
2018-12-17T01:26:28.969Z,3.38
2018-12-17T01:29:32.169Z,3.44
2018-12-17T01:32:35.868Z,3.51
2018-12-17T01:35:40.203Z,3.54
2018-12-17T01:38:44.162Z,3.56
2018-12-17T01:41:47.385Z,3.53
2018-12-17T01:44:50.581Z,3.51
2018-12-17T01:47:53.812Z,3.51
2018-12-17T01:50:57.016Z,3.57
2018-12-17T01:54:00.227Z,3.39
2018-12-17T01:57:03.477Z,3.34
2018-12-17T02:00:07.334Z,3.27
2018-12-17T02:03:10.977Z,3.30
2018-12-17T02:06:14.198Z,3.36
2018-12-17T02:09:17.549Z,3.29
2018-12-17T02:12:20.790Z,3.11
2018-12-17T02:15:24.019Z,3.36
2018-12-17T02:18:27.216Z,3.52
2018-12-17T02:21:30.451Z,3.36
2018-12-17T02:24:33.828Z,3.55
2018-12-17T02:27:37.041Z,3.49
2018-12-17T02:30:40.249Z,3.60
2018-12-17T02:33:43.517Z,3.61
2018-12-17T02:36:46.906Z,3.63
2018-12-17T02:39:50.207Z,3.58
2018-12-17T02:42:53.435Z,3.55
2018-12-17T02:45:56.649Z,3.52
2018-12-17T02:48:59.885Z,3.53
2018-12-17T02:52:03.113Z,3.60
2018-12-17T02:55:06.848Z,3.46
2018-12-17T02:58:10.173Z,3.40
2018-12-17T03:01:13.396Z,3.31
2018-12-17T03:04:16.609Z,3.19
2018-12-17T03:07:19.817Z,3.19
2018-12-17T03:10:23.047Z,3.10
2018-12-17T03:13:26.260Z,3.05
2018-12-17T03:16:30.610Z,3.06
2018-12-17T03:19:33.840Z,2.97
2018-12-17T03:22:37.036Z,3.00
2018-12-17T03:25:40.250Z,3.04
2018-12-17T03:28:43.476Z,3.05
2018-12-17T03:31:47.139Z,3.15
2018-12-17T03:34:50.353Z,3.23
2018-12-17T03:37:53.577Z,3.08
2018-12-17T03:40:56.818Z,3.17
2018-12-17T03:44:00.033Z,3.09
2018-12-17T03:47:03.314Z,3.19
2018-12-17T03:50:07.213Z,3.25
2018-12-17T03:53:10.424Z,3.28
2018-12-17T03:56:13.632Z,3.24
2018-12-17T03:59:17.626Z,3.16
2018-12-17T04:02:20.880Z,3.21
2018-12-17T04:05:24.127Z,3.13
2018-12-17T04:08:27.357Z,3.15
2018-12-17T04:11:30.587Z,3.04
2018-12-17T04:14:33.806Z,3.07
2018-12-17T04:17:37.032Z,3.13
2018-12-17T04:20:40.244Z,3.12
2018-12-17T04:23:43.456Z,3.04
2018-12-17T04:26:48.699Z,3.08
2018-12-17T04:29:51.929Z,3.08
2018-12-17T04:32:55.264Z,3.04
2018-12-17T04:35:58.704Z,3.01
2018-12-17T04:39:01.957Z,3.08
2018-12-17T04:42:07.230Z,3.02
2018-12-17T04:45:10.560Z,3.07
2018-12-17T04:48:13.796Z,3.10
2018-12-17T04:51:17.149Z,3.08
2018-12-17T04:54:20.500Z,3.20
2018-12-17T04:57:23.715Z,3.24
2018-12-17T05:00:26.970Z,3.18
2018-12-17T05:03:30.192Z,3.18
2018-12-17T05:06:33.393Z,3.18
2018-12-17T05:09:36.636Z,3.18
2018-12-17T05:12:39.849Z,3.24
2018-12-17T05:15:43.188Z,3.27
2018-12-17T05:18:46.405Z,3.27
2018-12-17T05:21:49.601Z,3.23
2018-12-17T05:24:52.827Z,3.14
2018-12-17T05:27:56.132Z,3.17
2018-12-17T05:30:59.396Z,3.16
2018-12-17T05:34:02.642Z,3.14
2018-12-17T05:37:06.013Z,3.11
2018-12-17T05:40:09.492Z,3.22
2018-12-17T05:43:12.837Z,3.22
2018-12-17T05:46:16.080Z,3.21
2018-12-17T05:49:19.430Z,3.21
2018-12-17T05:52:22.633Z,3.31
2018-12-17T05:55:25.861Z,3.36
2018-12-17T05:58:29.087Z,3.22
2018-12-17T06:01:32.361Z,3.22
2018-12-17T06:04:35.588Z,3.25
2018-12-17T06:07:38.784Z,3.15
2018-12-17T06:10:42.023Z,3.27
2018-12-17T06:13:45.215Z,3.27
2018-12-17T06:16:48.445Z,3.26
2018-12-17T06:19:51.644Z,3.34
2018-12-17T06:22:54.853Z,3.34
2018-12-17T06:25:58.109Z,3.29
2018-12-17T06:29:01.307Z,3.48
2018-12-17T06:32:05.553Z,3.46
2018-12-17T06:35:08.913Z,3.35
2018-12-17T06:38:12.119Z,3.44
2018-12-17T06:41:15.341Z,3.59
2018-12-17T06:44:18.581Z,3.59
2018-12-17T06:47:21.835Z,3.64
2018-12-17T06:50:25.079Z,3.59
2018-12-17T06:53:28.283Z,3.58
2018-12-17T06:56:31.524Z,3.64
2018-12-17T06:59:34.762Z,3.81
2018-12-17T07:02:38.027Z,3.84
2018-12-17T07:05:41.237Z,3.81
2018-12-17T07:08:44.461Z,3.71
2018-12-17T07:11:47.698Z,3.93
2018-12-17T07:14:50.930Z,3.78
2018-12-17T07:17:54.153Z,3.83
2018-12-17T07:20:57.364Z,3.98
2018-12-17T07:24:00.875Z,3.91
2018-12-17T07:27:04.250Z,3.99
2018-12-17T07:30:08.109Z,3.92
2018-12-17T07:33:11.480Z,3.88
2018-12-17T07:36:14.816Z,4.06
2018-12-17T07:39:18.317Z,4.03
2018-12-17T07:42:21.549Z,3.94
2018-12-17T07:45:24.776Z,4.03
2018-12-17T07:48:28.024Z,4.35
2018-12-17T07:51:31.264Z,4.43
2018-12-17T07:54:34.489Z,4.18
2018-12-17T07:57:37.691Z,4.43
2018-12-17T08:00:42.069Z,4.63
2018-12-17T08:03:45.358Z,4.50
2018-12-17T08:06:48.573Z,4.30
2018-12-17T08:09:51.792Z,4.41
2018-12-17T08:12:55.037Z,4.50
2018-12-17T08:15:58.281Z,4.43
2018-12-17T08:19:01.518Z,4.49
2018-12-17T08:22:04.752Z,4.33
2018-12-17T08:25:09.779Z,4.25
2018-12-17T08:28:13.216Z,4.82
2018-12-17T08:31:16.541Z,5.20
2018-12-17T08:34:19.800Z,4.63
2018-12-17T08:37:23.028Z,4.61
2018-12-17T08:40:26.244Z,4.54
2018-12-17T08:43:29.471Z,4.68
2018-12-17T08:46:32.859Z,4.36
2018-12-17T08:49:36.213Z,4.58
2018-12-17T08:52:39.460Z,4.47
2018-12-17T08:55:42.687Z,4.44
2018-12-17T08:58:47.042Z,4.50
2018-12-17T09:01:50.445Z,4.63
2018-12-17T09:04:54.513Z,4.42
2018-12-17T09:07:57.784Z,4.58
2018-12-17T09:11:02.486Z,4.50
2018-12-17T09:14:06.325Z,4.54
2018-12-17T09:17:09.589Z,4.62
2018-12-17T09:20:12.849Z,4.46
2018-12-17T09:23:16.229Z,4.66
2018-12-17T09:26:19.524Z,4.89
2018-12-17T09:29:22.760Z,4.65
2018-12-17T09:32:26.129Z,4.82
2018-12-17T09:35:29.433Z,4.73
2018-12-17T09:38:32.788Z,4.94
2018-12-17T09:41:36.012Z,4.93
2018-12-17T09:44:39.254Z,4.75
2018-12-17T09:47:42.473Z,4.82
2018-12-17T09:50:45.852Z,5.01
2018-12-17T09:53:49.060Z,4.70
2018-12-17T09:56:52.287Z,12.33
2018-12-17T09:59:55.477Z,11.33
2018-12-17T10:02:59.442Z,7.46
2018-12-17T10:06:02.703Z,6.17
2018-12-17T10:09:06.978Z,5.61
2018-12-17T10:12:12.200Z,5.63
2018-12-17T10:15:15.409Z,5.52
2018-12-17T10:18:18.620Z,5.15
2018-12-17T10:21:21.818Z,5.23
2018-12-17T10:24:25.031Z,5.25
2018-12-17T10:27:28.252Z,5.25
2018-12-17T10:30:32.749Z,5.49
2018-12-17T10:33:36.156Z,5.65
2018-12-17T10:36:39.514Z,5.49
2018-12-17T10:39:42.731Z,5.62
2018-12-17T10:42:45.949Z,5.68
2018-12-17T10:45:49.143Z,5.29
2018-12-17T10:48:52.355Z,5.47
2018-12-17T10:51:56.680Z,5.57
2018-12-17T10:54:59.917Z,5.13
2018-12-17T10:58:03.123Z,5.35
2018-12-17T11:01:12.273Z,5.26
2018-12-17T11:07:39.132Z,5.37
2018-12-17T11:10:42.363Z,5.50
2018-12-17T11:13:45.592Z,5.58
2018-12-17T11:16:48.812Z,5.28
2018-12-17T11:19:52.027Z,5.39
2018-12-17T11:22:55.233Z,5.16
2018-12-17T11:25:58.467Z,6.02
2018-12-17T11:29:01.688Z,5.49
2018-12-17T11:32:11.491Z,6.16
2018-12-17T11:35:10.759Z,5.75
2018-12-17T11:38:15.097Z,5.50
2018-12-17T11:41:19.627Z,5.46
2018-12-17T11:44:22.998Z,5.51
2018-12-17T11:51:11.291Z,5.67
2018-12-17T11:54:14.621Z,5.57
2018-12-17T11:58:24.305Z,5.71
2018-12-17T12:01:29.619Z,5.62
2018-12-17T12:04:32.865Z,5.58
2018-12-17T12:07:36.323Z,5.63
2018-12-17T12:10:39.584Z,5.69
2018-12-17T12:13:42.857Z,5.68
2018-12-17T12:16:46.089Z,5.58
2018-12-17T12:20:04.378Z,5.55
2018-12-17T12:23:07.990Z,5.45
2018-12-17T12:26:11.478Z,5.76
2018-12-17T12:29:14.878Z,5.73
2018-12-17T12:32:18.487Z,5.58
2018-12-17T12:35:21.873Z,5.43
2018-12-17T12:38:25.275Z,5.51
2018-12-17T12:41:29.663Z,5.74
2018-12-17T12:44:33.102Z,5.62
2018-12-17T12:47:36.502Z,5.58
2018-12-17T12:50:39.897Z,5.57
2018-12-17T12:53:46.255Z,5.50
2018-12-17T12:56:49.634Z,5.51
2018-12-17T12:59:53.030Z,5.50
2018-12-17T13:02:56.406Z,5.53
2018-12-17T13:05:59.746Z,5.49
2018-12-17T13:09:04.495Z,5.50
2018-12-17T13:12:09.890Z,5.58
2018-12-17T13:15:14.221Z,5.35
2018-12-17T13:18:17.498Z,5.42
2018-12-17T13:21:21.571Z,5.41
2018-12-17T13:24:24.827Z,5.60
2018-12-17T13:27:28.073Z,5.64
2018-12-17T13:30:31.330Z,5.69
2018-12-17T13:33:35.930Z,5.51
2018-12-17T13:36:39.313Z,5.91
2018-12-17T13:39:42.729Z,5.57
2018-12-17T13:42:46.144Z,5.68
2018-12-17T13:45:49.542Z,5.67
2018-12-17T13:48:53.207Z,5.53
2018-12-17T13:52:02.298Z,5.62
2018-12-17T13:55:05.955Z,5.63
2018-12-17T13:58:09.522Z,5.48
2018-12-17T14:01:12.898Z,5.51
2018-12-17T14:04:16.277Z,5.52
2018-12-17T14:07:20.034Z,5.42
2018-12-17T14:10:29.101Z,5.36
2018-12-17T14:13:32.934Z,5.65
2018-12-17T14:16:41.970Z,5.55
2018-12-17T15:41:10.337Z,5.69
2018-12-17T15:44:13.750Z,5.72
2018-12-17T15:47:17.177Z,5.71
2018-12-17T15:50:20.602Z,5.68
2018-12-17T15:53:24.053Z,5.62
2018-12-17T15:56:27.483Z,5.76
2018-12-17T15:59:31.406Z,5.95
2018-12-17T16:02:34.859Z,5.96
2018-12-17T16:05:38.329Z,5.69
2018-12-17T16:08:41.765Z,5.70
2018-12-17T16:11:45.344Z,5.75
2018-12-17T16:14:50.034Z,5.74
2018-12-17T16:18:04.255Z,5.75
2018-12-17T16:21:09.358Z,5.76
2018-12-17T16:24:13.957Z,5.71
2018-12-17T16:27:19.420Z,6.05
2018-12-17T16:30:24.177Z,6.11
2018-12-17T16:33:29.982Z,5.86
2018-12-17T16:36:34.944Z,5.75
2018-12-17T16:39:40.247Z,5.89
2018-12-17T16:42:44.082Z,5.78
2018-12-17T16:45:48.124Z,5.89
2018-12-17T16:48:51.753Z,5.83
2018-12-17T16:51:55.542Z,5.81
2018-12-17T16:54:59.132Z,5.76
2018-12-17T16:58:02.798Z,5.89
2018-12-17T17:01:06.371Z,5.88
2018-12-17T17:04:11.008Z,5.72
2018-12-17T17:07:14.655Z,5.84
2018-12-17T17:10:18.467Z,5.90
2018-12-17T17:13:24.558Z,6.01
2018-12-17T17:16:29.176Z,5.88
2018-12-17T17:19:33.411Z,5.86
2018-12-17T17:22:38.074Z,5.92
2018-12-17T17:25:41.625Z,5.86
2018-12-17T17:28:45.993Z,5.94
2018-12-17T17:31:49.986Z,5.88
2018-12-17T17:34:54.063Z,5.94
2018-12-17T17:37:59.159Z,5.83
2018-12-17T17:41:03.347Z,5.93
2018-12-17T17:44:10.936Z,5.88
2018-12-17T17:47:14.673Z,5.82
2018-12-17T17:50:18.348Z,5.79
2018-12-17T17:53:23.281Z,5.78
2018-12-17T17:56:29.874Z,5.74
2018-12-17T17:59:33.656Z,5.73
2018-12-17T18:02:41.602Z,5.75
2018-12-17T18:05:45.298Z,5.80
2018-12-17T18:08:48.953Z,5.79
2018-12-17T18:11:52.657Z,5.73
2018-12-17T18:14:56.476Z,5.74
2018-12-17T18:18:00.627Z,5.69
2018-12-17T18:21:04.284Z,5.61
2018-12-17T18:24:08.165Z,5.68
2018-12-17T18:27:12.023Z,5.70
2018-12-17T18:30:15.899Z,5.59
2018-12-17T18:33:19.766Z,5.61
2018-12-17T18:36:23.667Z,5.59
2018-12-17T18:39:27.483Z,5.59
2018-12-17T18:42:31.293Z,5.52
2018-12-17T18:45:35.783Z,5.51
2018-12-17T18:48:40.444Z,5.51
2018-12-17T18:51:45.002Z,5.40
2018-12-17T18:54:49.754Z,5.28
2018-12-17T18:57:54.497Z,5.31
2018-12-17T19:00:59.169Z,5.30
2018-12-17T19:04:03.799Z,5.39
2018-12-17T19:07:08.517Z,5.37
2018-12-17T19:10:13.349Z,5.31
2018-12-17T19:13:18.274Z,5.25
2018-12-17T19:16:22.131Z,5.37
2018-12-17T19:19:25.845Z,5.29
2018-12-17T19:22:29.703Z,5.44
2018-12-17T19:25:33.701Z,5.37
2018-12-17T19:28:37.551Z,5.46
2018-12-17T19:31:41.413Z,5.54
2018-12-17T19:34:45.247Z,5.59
2018-12-17T19:37:49.065Z,5.60
2018-12-17T19:40:52.854Z,5.62
2018-12-17T19:43:56.686Z,5.70
2018-12-17T19:47:01.138Z,5.71
2018-12-17T19:50:06.579Z,5.64
2018-12-17T19:53:10.391Z,5.66
2018-12-17T19:56:20.827Z,5.71
2018-12-17T19:59:24.712Z,5.57
2018-12-17T20:02:28.610Z,5.72
2018-12-17T20:05:32.484Z,5.63
2018-12-17T20:08:36.399Z,5.64
2018-12-17T20:11:40.320Z,5.69
2018-12-17T20:14:44.216Z,5.71
2018-12-17T20:17:48.018Z,5.73
2018-12-17T20:20:51.920Z,5.66
2018-12-17T20:23:55.686Z,5.60
2018-12-17T20:26:59.601Z,5.65
2018-12-17T20:30:04.401Z,5.62
2018-12-17T20:33:09.615Z,5.66
2018-12-17T20:36:14.608Z,5.59
2018-12-17T20:39:18.493Z,5.53
2018-12-17T20:42:22.264Z,5.46
2018-12-17T20:45:25.865Z,5.53
2018-12-17T20:48:29.417Z,5.53
2018-12-17T20:51:33.048Z,5.51
2018-12-17T20:54:36.765Z,5.55
2018-12-17T20:57:40.791Z,5.53
2018-12-17T21:00:45.755Z,5.51
2018-12-17T21:03:49.666Z,5.58
2018-12-17T21:06:54.159Z,5.68
2018-12-17T21:09:57.941Z,5.72
2018-12-17T21:13:02.228Z,5.52
2018-12-17T21:16:06.658Z,5.60
2018-12-17T21:19:10.335Z,5.71
2018-12-17T21:22:13.849Z,5.75
2018-12-17T21:25:17.347Z,5.81
2018-12-17T21:28:20.842Z,5.90
2018-12-17T21:31:25.586Z,5.77
2018-12-17T21:34:29.479Z,5.76
2018-12-17T21:37:33.022Z,5.72
2018-12-17T21:40:36.695Z,5.83
2018-12-17T21:43:40.332Z,5.91
2018-12-17T21:46:44.870Z,5.82
2018-12-17T21:49:48.314Z,5.92
2018-12-17T21:52:51.891Z,5.85
2018-12-17T21:55:55.578Z,5.92
2018-12-17T21:58:59.282Z,5.92
2018-12-17T22:02:06.313Z,5.94
2018-12-17T22:05:10.138Z,5.84
2018-12-17T22:08:13.830Z,5.85
2018-12-17T22:11:17.472Z,5.88
2018-12-17T22:14:21.482Z,5.86
2018-12-17T22:17:25.143Z,5.94
2018-12-17T22:20:28.976Z,6.02
2018-12-17T22:23:36.167Z,6.06
2018-12-17T22:26:39.894Z,5.94
2018-12-17T22:29:43.677Z,5.99
2018-12-17T22:32:47.714Z,6.01
2018-12-17T22:35:51.349Z,5.92
2018-12-17T22:38:54.971Z,6.00
2018-12-17T22:42:00.756Z,6.00
2018-12-17T22:45:05.331Z,6.03
2018-12-17T22:48:09.701Z,6.04
2018-12-17T22:51:13.616Z,6.10
2018-12-17T22:54:17.353Z,6.19
2018-12-17T22:57:30.825Z,6.09
2018-12-17T23:00:35.741Z,6.10
2018-12-17T23:03:42.488Z,6.13
2018-12-17T23:06:56.458Z,6.12
2018-12-17T23:10:20.765Z,6.13
2018-12-17T23:13:43.910Z,5.83
2018-12-17T23:17:04.919Z,6.17
2018-12-17T23:20:19.064Z,6.13
2018-12-17T23:23:29.052Z,6.17
2018-12-17T23:26:41.997Z,6.15
2018-12-17T23:29:46.833Z,6.00
2018-12-17T23:32:55.585Z,6.09
2018-12-17T23:36:03.493Z,6.06
2018-12-17T23:39:16.630Z,6.13
2018-12-17T23:42:26.673Z,6.03
2018-12-17T23:45:36.120Z,6.13
2018-12-17T23:48:41.103Z,6.02
2018-12-17T23:51:46.016Z,5.99
2018-12-17T23:54:50.824Z,5.97
2018-12-17T23:57:55.593Z,6.05
